Elton, Louisiana
Current Conditions -  °F | °C
As of 9:15 AM on Wednesday 22 Oct 2014 (Local Time) from K3R7 Reporting Station
Clear Clear  
Wind Chill: 65°   Ceiling: Unl
Heat Index: 65°   Visibility: 10mi
Dew Point: 60°   Wind: 8mph
Humidity: 83%   Direction: 70°ENE
Pressure: 30.11"   Gusts: NA
Location:  30.48°N, 92.7°W
Report Text: K3R7 221415Z AUTO 07007KT 10SM CLR 19/16 A3011 RMK AO2 T01850155
Loading
Personal Weather Stations






























Interactive Weather Map
Tropical Storm Tracking
New forecast layout! Learn more

10-Day Weather Forecast

Advertisements
Track Severe Weather on mobile